sensor_id;sensor_type;location;lat;lon;timestamp;temperature;humidity
15286;DHT22;7744;52.172;10.668;2023-03-01T00:01:59;-4.20;99.90
15286;DHT22;7744;52.172;10.668;2023-03-01T00:04:24;-4.20;99.90
15286;DHT22;7744;52.172;10.668;2023-03-01T00:06:50;-4.20;99.90
15286;DHT22;7744;52.172;10.668;2023-03-01T00:09:17;-4.20;99.90
15286;DHT22;7744;52.172;10.668;2023-03-01T00:11:43;-4.30;99.90
15286;DHT22;7744;52.172;10.668;2023-03-01T00:14:09;-4.30;99.90
15286;DHT22;7744;52.172;10.668;2023-03-01T00:16:38;-1.80;99.90
15286;DHT22;7744;52.172;10.668;2023-03-01T00:19:05;-4.30;99.90
15286;DHT22;7744;52.172;10.668;2023-03-01T00:21:31;-4.30;99.90
15286;DHT22;7744;52.172;10.668;2023-03-01T00:23:57;-4.40;99.90
15286;DHT22;7744;52.172;10.668;2023-03-01T00:26:25;-4.40;99.90
15286;DHT22;7744;52.172;10.668;2023-03-01T00:28:51;-4.40;99.90
15286;DHT22;7744;52.172;10.668;2023-03-01T00:31:21;-4.40;99.90
15286;DHT22;7744;52.172;10.668;2023-03-01T00:33:47;-4.50;99.90
15286;DHT22;7744;52.172;10.668;2023-03-01T00:36:14;-4.50;99.90
15286;DHT22;7744;52.172;10.668;2023-03-01T00:38:42;-4.50;99.90
15286;DHT22;7744;52.172;10.668;2023-03-01T00:41:12;-4.60;99.90
15286;DHT22;7744;52.172;10.668;2023-03-01T00:43:37;-4.60;99.90
15286;DHT22;7744;52.172;10.668;2023-03-01T00:46:06;-4.60;99.90
15286;DHT22;7744;52.172;10.668;2023-03-01T00:48:32;-4.30;1.00
15286;DHT22;7744;52.172;10.668;2023-03-01T00:51:07;-4.60;1.00
15286;DHT22;7744;52.172;10.668;2023-03-01T00:53:34;-4.60;1.00
15286;DHT22;7744;52.172;10.668;2023-03-01T00:56:00;-4.60;1.00
15286;DHT22;7744;52.172;10.668;2023-03-01T00:58:26;-4.70;99.90
15286;DHT22;7744;52.172;10.668;2023-03-01T01:00:52;-4.70;99.90
15286;DHT22;7744;52.172;10.668;2023-03-01T01:03:18;-4.70;99.90
15286;DHT22;7744;52.172;10.668;2023-03-01T01:05:44;-4.70;99.90
15286;DHT22;7744;52.172;10.668;2023-03-01T01:08:09;-4.70;99.90
15286;DHT22;7744;52.172;10.668;2023-03-01T01:10:35;-4.80;99.90
15286;DHT22;7744;52.172;10.668;2023-03-01T01:13:01;-4.80;99.90
15286;DHT22;7744;52.172;10.668;2023-03-01T01:15:26;-4.80;99.90
15286;DHT22;7744;52.172;10.668;2023-03-01T01:17:52;-4.90;99.90
15286;DHT22;7744;52.172;10.668;2023-03-01T01:20:18;-4.90;1.00
15286;DHT22;7744;52.172;10.668;2023-03-01T01:22:43;-4.90;99.90
15286;DHT22;7744;52.172;10.668;2023-03-01T01:25:09;-4.90;99.90
15286;DHT22;7744;52.172;10.668;2023-03-01T01:27:36;-4.90;1.00
15286;DHT22;7744;52.172;10.668;2023-03-01T01:30:02;-4.90;1.00
15286;DHT22;7744;52.172;10.668;2023-03-01T01:32:28;-4.90;1.00
15286;DHT22;7744;52.172;10.668;2023-03-01T01:34:54;-4.90;1.00
15286;DHT22;7744;52.172;10.668;2023-03-01T01:37:19;-4.90;1.00
15286;DHT22;7744;52.172;10.668;2023-03-01T01:39:45;-4.90;1.00
15286;DHT22;7744;52.172;10.668;2023-03-01T01:42:18;-4.90;1.00
15286;DHT22;7744;52.172;10.668;2023-03-01T01:44:47;-5.00;1.00
15286;DHT22;7744;52.172;10.668;2023-03-01T01:47:16;-5.10;1.00
15286;DHT22;7744;52.172;10.668;2023-03-01T01:50:04;-5.10;1.00
15286;DHT22;7744;52.172;10.668;2023-03-01T01:52:35;-5.10;1.00
15286;DHT22;7744;52.172;10.668;2023-03-01T01:55:10;-5.10;1.00
15286;DHT22;7744;52.172;10.668;2023-03-01T01:57:40;-5.10;1.00
15286;DHT22;7744;52.172;10.668;2023-03-01T02:02:42;-5.10;1.00
15286;DHT22;7744;52.172;10.668;2023-03-01T02:08:18;-4.60;1.00
15286;DHT22;7744;52.172;10.668;2023-03-01T02:10:45;-5.10;1.00
15286;DHT22;7744;52.172;10.668;2023-03-01T02:13:12;-5.10;66.80
15286;DHT22;7744;52.172;10.668;2023-03-01T02:15:39;-5.10;91.10
15286;DHT22;7744;52.172;10.668;2023-03-01T02:18:07;-5.10;99.90
15286;DHT22;7744;52.172;10.668;2023-03-01T02:20:40;-5.10;99.90
15286;DHT22;7744;52.172;10.668;2023-03-01T02:23:08;-5.10;99.90
15286;DHT22;7744;52.172;10.668;2023-03-01T02:25:45;-5.20;99.90
15286;DHT22;7744;52.172;10.668;2023-03-01T02:30:45;-5.20;99.90
15286;DHT22;7744;52.172;10.668;2023-03-01T02:33:31;-5.20;99.90
15286;DHT22;7744;52.172;10.668;2023-03-01T02:36:00;-5.10;99.90
15286;DHT22;7744;52.172;10.668;2023-03-01T02:38:27;-5.10;99.90
15286;DHT22;7744;52.172;10.668;2023-03-01T02:40:54;-5.20;99.90
15286;DHT22;7744;52.172;10.668;2023-03-01T02:43:22;-5.20;99.90
15286;DHT22;7744;52.172;10.668;2023-03-01T02:45:52;-5.20;99.90
15286;DHT22;7744;52.172;10.668;2023-03-01T02:48:19;-5.10;1.00
15286;DHT22;7744;52.172;10.668;2023-03-01T02:53:35;-5.30;1.00
15286;DHT22;7744;52.172;10.668;2023-03-01T02:56:03;-5.30;1.00
15286;DHT22;7744;52.172;10.668;2023-03-01T02:58:29;-5.30;1.00
15286;DHT22;7744;52.172;10.668;2023-03-01T03:00:55;-5.30;1.00
15286;DHT22;7744;52.172;10.668;2023-03-01T03:03:21;-5.40;1.00
15286;DHT22;7744;52.172;10.668;2023-03-01T03:05:47;-5.50;1.00
15286;DHT22;7744;52.172;10.668;2023-03-01T03:08:14;-5.50;1.00
15286;DHT22;7744;52.172;10.668;2023-03-01T03:10:49;-5.50;1.00
15286;DHT22;7744;52.172;10.668;2023-03-01T03:13:15;-5.50;1.00
15286;DHT22;7744;52.172;10.668;2023-03-01T03:15:42;-5.50;1.00
15286;DHT22;7744;52.172;10.668;2023-03-01T03:18:11;-5.50;1.00
15286;DHT22;7744;52.172;10.668;2023-03-01T03:20:39;-5.50;1.00
15286;DHT22;7744;52.172;10.668;2023-03-01T03:23:05;-5.60;1.00
15286;DHT22;7744;52.172;10.668;2023-03-01T03:25:31;-5.60;1.00
15286;DHT22;7744;52.172;10.668;2023-03-01T03:27:57;-5.60;1.00
15286;DHT22;7744;52.172;10.668;2023-03-01T03:30:30;-5.70;1.00
15286;DHT22;7744;52.172;10.668;2023-03-01T03:32:57;-5.70;1.00
15286;DHT22;7744;52.172;10.668;2023-03-01T03:35:27;-5.70;25.10
15286;DHT22;7744;52.172;10.668;2023-03-01T03:37:56;-5.70;68.80
15286;DHT22;7744;52.172;10.668;2023-03-01T03:40:32;-5.70;99.90
15286;DHT22;7744;52.172;10.668;2023-03-01T03:42:58;-5.70;99.90
15286;DHT22;7744;52.172;10.668;2023-03-01T03:45:24;-5.80;90.70
15286;DHT22;7744;52.172;10.668;2023-03-01T03:47:49;-5.80;79.50
15286;DHT22;7744;52.172;10.668;2023-03-01T03:50:16;-5.90;17.10
15286;DHT22;7744;52.172;10.668;2023-03-01T03:52:42;-5.90;3.20
15286;DHT22;7744;52.172;10.668;2023-03-01T03:55:10;-5.90;27.90
15286;DHT22;7744;52.172;10.668;2023-03-01T03:57:42;-5.90;41.30
15286;DHT22;7744;52.172;10.668;2023-03-01T04:00:10;-5.90;26.80
15286;DHT22;7744;52.172;10.668;2023-03-01T04:02:48;-5.90;43.50
15286;DHT22;7744;52.172;10.668;2023-03-01T04:05:15;-5.90;66.20
15286;DHT22;7744;52.172;10.668;2023-03-01T04:07:42;-5.90;99.90
15286;DHT22;7744;52.172;10.668;2023-03-01T04:10:14;-5.70;99.90
15286;DHT22;7744;52.172;10.668;2023-03-01T04:12:39;-5.90;99.90
15286;DHT22;7744;52.172;10.668;2023-03-01T04:15:06;-6.00;99.90
15286;DHT22;7744;52.172;10.668;2023-03-01T04:17:45;-6.00;99.90
15286;DHT22;7744;52.172;10.668;2023-03-01T04:20:17;-6.10;99.90
15286;DHT22;7744;52.172;10.668;2023-03-01T04:22:44;-6.00;99.90
15286;DHT22;7744;52.172;10.668;2023-03-01T04:25:12;-6.00;99.90
15286;DHT22;7744;52.172;10.668;2023-03-01T04:27:39;-6.00;99.90
15286;DHT22;7744;52.172;10.668;2023-03-01T04:30:06;-6.00;99.90
15286;DHT22;7744;52.172;10.668;2023-03-01T04:32:32;-6.10;99.90
15286;DHT22;7744;52.172;10.668;2023-03-01T04:34:57;-5.90;99.90
15286;DHT22;7744;52.172;10.668;2023-03-01T04:37:23;-6.00;99.90
15286;DHT22;7744;52.172;10.668;2023-03-01T04:39:49;-6.10;99.90
15286;DHT22;7744;52.172;10.668;2023-03-01T04:42:15;-6.10;99.90
15286;DHT22;7744;52.172;10.668;2023-03-01T04:44:42;-6.10;99.90
15286;DHT22;7744;52.172;10.668;2023-03-01T04:47:08;-6.10;99.90
15286;DHT22;7744;52.172;10.668;2023-03-01T04:49:33;-5.90;99.90
15286;DHT22;7744;52.172;10.668;2023-03-01T04:51:59;-6.10;99.90
15286;DHT22;7744;52.172;10.668;2023-03-01T04:54:28;-6.10;99.90
15286;DHT22;7744;52.172;10.668;2023-03-01T04:56:54;-5.90;99.90
15286;DHT22;7744;52.172;10.668;2023-03-01T04:59:20;-6.20;99.90
15286;DHT22;7744;52.172;10.668;2023-03-01T05:01:48;-6.20;99.90
15286;DHT22;7744;52.172;10.668;2023-03-01T05:04:14;-6.10;99.90
15286;DHT22;7744;52.172;10.668;2023-03-01T05:06:40;-6.10;99.90
15286;DHT22;7744;52.172;10.668;2023-03-01T05:09:05;-5.80;99.90
15286;DHT22;7744;52.172;10.668;2023-03-01T05:11:31;-6.10;99.90
15286;DHT22;7744;52.172;10.668;2023-03-01T05:14:01;-6.20;99.90
15286;DHT22;7744;52.172;10.668;2023-03-01T05:16:27;-6.10;99.90
15286;DHT22;7744;52.172;10.668;2023-03-01T05:18:52;-6.20;99.90
15286;DHT22;7744;52.172;10.668;2023-03-01T05:21:20;-6.10;99.90
15286;DHT22;7744;52.172;10.668;2023-03-01T05:23:46;-6.10;99.90
15286;DHT22;7744;52.172;10.668;2023-03-01T05:26:13;-6.20;99.90
15286;DHT22;7744;52.172;10.668;2023-03-01T05:28:39;-6.20;99.90
15286;DHT22;7744;52.172;10.668;2023-03-01T05:31:05;-6.20;99.90
15286;DHT22;7744;52.172;10.668;2023-03-01T05:33:38;-6.20;99.90
15286;DHT22;7744;52.172;10.668;2023-03-01T05:36:05;-6.20;99.90
15286;DHT22;7744;52.172;10.668;2023-03-01T05:38:32;-6.20;99.90
15286;DHT22;7744;52.172;10.668;2023-03-01T05:40:58;-6.20;99.90
15286;DHT22;7744;52.172;10.668;2023-03-01T05:43:24;-6.30;99.90
15286;DHT22;7744;52.172;10.668;2023-03-01T05:45:49;-6.20;99.90
15286;DHT22;7744;52.172;10.668;2023-03-01T05:48:15;-6.30;99.90
15286;DHT22;7744;52.172;10.668;2023-03-01T05:50:44;-6.20;99.90
15286;DHT22;7744;52.172;10.668;2023-03-01T05:53:16;-6.30;99.90
15286;DHT22;7744;52.172;10.668;2023-03-01T05:55:43;-6.30;99.90
15286;DHT22;7744;52.172;10.668;2023-03-01T05:58:15;-6.30;99.90
15286;DHT22;7744;52.172;10.668;2023-03-01T06:00:43;-6.20;99.90
15286;DHT22;7744;52.172;10.668;2023-03-01T06:03:11;-6.40;89.70
15286;DHT22;7744;52.172;10.668;2023-03-01T06:05:37;-6.30;99.90
15286;DHT22;7744;52.172;10.668;2023-03-01T06:08:03;-6.40;90.20
15286;DHT22;7744;52.172;10.668;2023-03-01T06:10:29;-6.40;40.00
15286;DHT22;7744;52.172;10.668;2023-03-01T06:12:55;-6.30;1.00
15286;DHT22;7744;52.172;10.668;2023-03-01T06:15:21;-6.40;1.00
15286;DHT22;7744;52.172;10.668;2023-03-01T06:17:47;-6.40;1.00
15286;DHT22;7744;52.172;10.668;2023-03-01T06:20:14;-6.40;1.00
15286;DHT22;7744;52.172;10.668;2023-03-01T06:22:40;-6.50;1.00
15286;DHT22;7744;52.172;10.668;2023-03-01T06:25:07;-6.40;1.00
15286;DHT22;7744;52.172;10.668;2023-03-01T06:27:34;-6.40;1.00
15286;DHT22;7744;52.172;10.668;2023-03-01T06:29:59;-6.40;1.00
15286;DHT22;7744;52.172;10.668;2023-03-01T06:32:25;-6.30;1.00
15286;DHT22;7744;52.172;10.668;2023-03-01T06:34:50;-6.30;1.00
15286;DHT22;7744;52.172;10.668;2023-03-01T06:37:16;-6.30;1.00
15286;DHT22;7744;52.172;10.668;2023-03-01T06:39:41;-6.30;1.00
15286;DHT22;7744;52.172;10.668;2023-03-01T06:42:08;-6.10;1.00
15286;DHT22;7744;52.172;10.668;2023-03-01T06:44:33;-6.20;1.00
15286;DHT22;7744;52.172;10.668;2023-03-01T06:46:59;-6.20;1.00
15286;DHT22;7744;52.172;10.668;2023-03-01T06:49:24;-6.10;1.00
15286;DHT22;7744;52.172;10.668;2023-03-01T06:51:50;-6.10;1.00
15286;DHT22;7744;52.172;10.668;2023-03-01T06:54:16;-6.00;1.00
15286;DHT22;7744;52.172;10.668;2023-03-01T06:56:43;-6.00;1.00
15286;DHT22;7744;52.172;10.668;2023-03-01T06:59:08;-5.90;1.00
15286;DHT22;7744;52.172;10.668;2023-03-01T07:01:34;-5.80;1.00
15286;DHT22;7744;52.172;10.668;2023-03-01T07:03:59;-5.80;1.00
15286;DHT22;7744;52.172;10.668;2023-03-01T07:06:25;-5.70;1.00
15286;DHT22;7744;52.172;10.668;2023-03-01T07:08:50;-5.70;1.00
15286;DHT22;7744;52.172;10.668;2023-03-01T07:11:16;-5.60;1.00
15286;DHT22;7744;52.172;10.668;2023-03-01T07:13:42;-5.50;1.00
15286;DHT22;7744;52.172;10.668;2023-03-01T07:16:08;-5.20;99.90
15286;DHT22;7744;52.172;10.668;2023-03-01T07:18:33;-5.20;56.70
15286;DHT22;7744;52.172;10.668;2023-03-01T07:21:04;-5.20;10.20
15286;DHT22;7744;52.172;10.668;2023-03-01T07:23:31;-5.10;5.80
15286;DHT22;7744;52.172;10.668;2023-03-01T07:25:57;-5.00;1.00
15286;DHT22;7744;52.172;10.668;2023-03-01T07:28:23;-4.90;24.10
15286;DHT22;7744;52.172;10.668;2023-03-01T07:30:49;-4.80;65.50
15286;DHT22;7744;52.172;10.668;2023-03-01T07:33:15;-4.70;40.20
15286;DHT22;7744;52.172;10.668;2023-03-01T07:35:40;-4.70;9.80
15286;DHT22;7744;52.172;10.668;2023-03-01T07:38:06;-4.60;1.00
15286;DHT22;7744;52.172;10.668;2023-03-01T07:40:31;-4.60;1.00
15286;DHT22;7744;52.172;10.668;2023-03-01T07:42:58;-4.50;1.00
15286;DHT22;7744;52.172;10.668;2023-03-01T07:45:25;-4.50;1.00
15286;DHT22;7744;52.172;10.668;2023-03-01T07:47:52;-4.40;1.00
15286;DHT22;7744;52.172;10.668;2023-03-01T07:50:18;-4.30;60.00
15286;DHT22;7744;52.172;10.668;2023-03-01T07:52:47;-4.20;78.00
15286;DHT22;7744;52.172;10.668;2023-03-01T07:55:13;-4.10;94.30
15286;DHT22;7744;52.172;10.668;2023-03-01T07:57:39;-4.00;29.40
15286;DHT22;7744;52.172;10.668;2023-03-01T08:00:06;-3.90;18.70
15286;DHT22;7744;52.172;10.668;2023-03-01T08:02:32;-3.80;13.50
15286;DHT22;7744;52.172;10.668;2023-03-01T08:04:57;-3.80;24.00
15286;DHT22;7744;52.172;10.668;2023-03-01T08:07:23;-3.70;60.50
15286;DHT22;7744;52.172;10.668;2023-03-01T08:09:48;-3.50;57.20
15286;DHT22;7744;52.172;10.668;2023-03-01T08:12:14;-3.20;77.90
15286;DHT22;7744;52.172;10.668;2023-03-01T08:14:41;-3.00;1.00
15286;DHT22;7744;52.172;10.668;2023-03-01T08:17:07;-2.90;99.90
15286;DHT22;7744;52.172;10.668;2023-03-01T08:19:32;-2.80;99.90
15286;DHT22;7744;52.172;10.668;2023-03-01T08:22:03;-2.80;99.90
15286;DHT22;7744;52.172;10.668;2023-03-01T08:24:28;-2.70;99.90
15286;DHT22;7744;52.172;10.668;2023-03-01T08:26:54;-2.50;99.90
15286;DHT22;7744;52.172;10.668;2023-03-01T08:29:20;-2.50;99.90
15286;DHT22;7744;52.172;10.668;2023-03-01T08:31:46;-2.30;99.90
15286;DHT22;7744;52.172;10.668;2023-03-01T08:34:14;-2.30;99.90
15286;DHT22;7744;52.172;10.668;2023-03-01T08:36:42;-2.20;80.40
15286;DHT22;7744;52.172;10.668;2023-03-01T08:39:10;-2.00;1.00
15286;DHT22;7744;52.172;10.668;2023-03-01T08:41:36;-2.00;1.00
15286;DHT22;7744;52.172;10.668;2023-03-01T08:44:02;-1.80;1.00
15286;DHT22;7744;52.172;10.668;2023-03-01T08:46:30;-1.70;1.00
15286;DHT22;7744;52.172;10.668;2023-03-01T08:48:56;-1.60;1.00
15286;DHT22;7744;52.172;10.668;2023-03-01T08:51:22;-1.50;99.90
15286;DHT22;7744;52.172;10.668;2023-03-01T08:53:49;-1.40;99.90
15286;DHT22;7744;52.172;10.668;2023-03-01T08:56:16;-1.20;99.90
15286;DHT22;7744;52.172;10.668;2023-03-01T08:58:46;-1.10;99.90
15286;DHT22;7744;52.172;10.668;2023-03-01T09:01:15;-1.00;99.90
15286;DHT22;7744;52.172;10.668;2023-03-01T09:03:41;-0.90;99.90
15286;DHT22;7744;52.172;10.668;2023-03-01T09:06:08;-0.80;99.90
15286;DHT22;7744;52.172;10.668;2023-03-01T09:08:42;-0.70;99.90
15286;DHT22;7744;52.172;10.668;2023-03-01T09:11:10;-0.60;99.90
15286;DHT22;7744;52.172;10.668;2023-03-01T09:13:36;-0.50;88.20
15286;DHT22;7744;52.172;10.668;2023-03-01T09:16:03;-0.40;89.50
15286;DHT22;7744;52.172;10.668;2023-03-01T09:18:30;-0.40;68.80
15286;DHT22;7744;52.172;10.668;2023-03-01T09:21:07;-0.20;40.60
15286;DHT22;7744;52.172;10.668;2023-03-01T09:23:38;-0.10;37.40
15286;DHT22;7744;52.172;10.668;2023-03-01T09:26:10;0.00;21.40
15286;DHT22;7744;52.172;10.668;2023-03-01T09:28:37;0.20;6.60
15286;DHT22;7744;52.172;10.668;2023-03-01T09:31:03;0.30;1.00
15286;DHT22;7744;52.172;10.668;2023-03-01T09:33:31;0.40;1.00
15286;DHT22;7744;52.172;10.668;2023-03-01T09:35:58;0.60;1.00
15286;DHT22;7744;52.172;10.668;2023-03-01T09:38:25;0.70;1.00
15286;DHT22;7744;52.172;10.668;2023-03-01T09:40:51;0.80;1.00
15286;DHT22;7744;52.172;10.668;2023-03-01T09:46:09;1.00;1.00
15286;DHT22;7744;52.172;10.668;2023-03-01T09:48:50;1.10;1.00
15286;DHT22;7744;52.172;10.668;2023-03-01T09:51:26;0.20;1.00
15286;DHT22;7744;52.172;10.668;2023-03-01T09:53:52;1.30;1.00
15286;DHT22;7744;52.172;10.668;2023-03-01T09:56:25;1.40;1.00
15286;DHT22;7744;52.172;10.668;2023-03-01T10:01:44;1.60;1.00
15286;DHT22;7744;52.172;10.668;2023-03-01T10:09:24;1.80;1.00
15286;DHT22;7744;52.172;10.668;2023-03-01T10:11:52;2.00;1.00
15286;DHT22;7744;52.172;10.668;2023-03-01T10:17:26;2.10;1.00
15286;DHT22;7744;52.172;10.668;2023-03-01T10:19:52;2.20;1.00
15286;DHT22;7744;52.172;10.668;2023-03-01T10:22:26;2.30;1.00
15286;DHT22;7744;52.172;10.668;2023-03-01T10:24:54;2.40;1.00
15286;DHT22;7744;52.172;10.668;2023-03-01T10:28:02;2.60;1.00
15286;DHT22;7744;52.172;10.668;2023-03-01T10:30:40;2.70;1.00
15286;DHT22;7744;52.172;10.668;2023-03-01T10:33:27;2.80;1.00
15286;DHT22;7744;52.172;10.668;2023-03-01T10:35:54;2.90;1.00
15286;DHT22;7744;52.172;10.668;2023-03-01T10:38:20;3.00;1.00
15286;DHT22;7744;52.172;10.668;2023-03-01T10:41:00;3.10;1.00
15286;DHT22;7744;52.172;10.668;2023-03-01T10:43:57;3.10;1.00
15286;DHT22;7744;52.172;10.668;2023-03-01T10:46:37;3.20;1.00
15286;DHT22;7744;52.172;10.668;2023-03-01T10:49:06;3.20;1.00
15286;DHT22;7744;52.172;10.668;2023-03-01T10:51:33;3.30;1.00
15286;DHT22;7744;52.172;10.668;2023-03-01T10:53:58;3.20;1.00
15286;DHT22;7744;52.172;10.668;2023-03-01T10:56:24;3.30;1.00
15286;DHT22;7744;52.172;10.668;2023-03-01T10:58:57;3.50;1.00
15286;DHT22;7744;52.172;10.668;2023-03-01T11:01:26;3.60;1.00
15286;DHT22;7744;52.172;10.668;2023-03-01T11:04:10;3.60;1.00
15286;DHT22;7744;52.172;10.668;2023-03-01T11:06:37;3.70;1.00
15286;DHT22;7744;52.172;10.668;2023-03-01T11:09:16;3.70;1.00
15286;DHT22;7744;52.172;10.668;2023-03-01T11:11:43;3.60;1.00
15286;DHT22;7744;52.172;10.668;2023-03-01T11:14:16;3.70;1.00
15286;DHT22;7744;52.172;10.668;2023-03-01T11:16:44;3.90;1.00
15286;DHT22;7744;52.172;10.668;2023-03-01T11:22:23;4.10;1.00
15286;DHT22;7744;52.172;10.668;2023-03-01T11:24:46;4.10;1.00
15286;DHT22;7744;52.172;10.668;2023-03-01T11:27:39;4.10;1.00
15286;DHT22;7744;52.172;10.668;2023-03-01T11:30:26;4.30;1.00
15286;DHT22;7744;52.172;10.668;2023-03-01T11:35:35;4.40;1.00
15286;DHT22;7744;52.172;10.668;2023-03-01T11:45:58;4.40;1.00
15286;DHT22;7744;52.172;10.668;2023-03-01T11:51:45;4.50;1.00
15286;DHT22;7744;52.172;10.668;2023-03-01T11:58:09;4.60;1.00
15286;DHT22;7744;52.172;10.668;2023-03-01T12:03:33;4.80;1.00
15286;DHT22;7744;52.172;10.668;2023-03-01T12:08:48;5.10;1.00
15286;DHT22;7744;52.172;10.668;2023-03-01T12:14:17;5.00;1.00
15286;DHT22;7744;52.172;10.668;2023-03-01T12:17:02;4.90;1.00
15286;DHT22;7744;52.172;10.668;2023-03-01T12:22:31;4.80;1.00
15286;DHT22;7744;52.172;10.668;2023-03-01T12:25:38;5.00;1.00
15286;DHT22;7744;52.172;10.668;2023-03-01T12:30:42;5.00;1.00
15286;DHT22;7744;52.172;10.668;2023-03-01T12:33:43;5.00;1.00
15286;DHT22;7744;52.172;10.668;2023-03-01T12:36:21;5.00;1.00
15286;DHT22;7744;52.172;10.668;2023-03-01T12:41:40;5.10;1.00
15286;DHT22;7744;52.172;10.668;2023-03-01T12:44:23;5.10;1.00
15286;DHT22;7744;52.172;10.668;2023-03-01T12:52:41;5.30;1.00
15286;DHT22;7744;52.172;10.668;2023-03-01T12:55:38;5.40;1.00
15286;DHT22;7744;52.172;10.668;2023-03-01T13:04:01;5.60;1.00
15286;DHT22;7744;52.172;10.668;2023-03-01T13:12:03;5.50;1.00
15286;DHT22;7744;52.172;10.668;2023-03-01T13:16:57;5.50;1.00
15286;DHT22;7744;52.172;10.668;2023-03-01T13:19:28;5.60;1.00
15286;DHT22;7744;52.172;10.668;2023-03-01T13:21:58;5.60;1.00
15286;DHT22;7744;52.172;10.668;2023-03-01T13:29:52;5.60;1.00
15286;DHT22;7744;52.172;10.668;2023-03-01T13:35:00;5.70;1.00
15286;DHT22;7744;52.172;10.668;2023-03-01T13:37:28;5.60;1.00
15286;DHT22;7744;52.172;10.668;2023-03-01T13:40:00;5.60;1.00
15286;DHT22;7744;52.172;10.668;2023-03-01T13:42:34;5.70;1.00
15286;DHT22;7744;52.172;10.668;2023-03-01T13:45:00;6.00;1.00
15286;DHT22;7744;52.172;10.668;2023-03-01T13:47:27;6.20;1.00
15286;DHT22;7744;52.172;10.668;2023-03-01T13:49:59;6.30;1.00
15286;DHT22;7744;52.172;10.668;2023-03-01T13:57:40;6.50;1.00
15286;DHT22;7744;52.172;10.668;2023-03-01T14:00:07;6.60;1.00
15286;DHT22;7744;52.172;10.668;2023-03-01T14:03:09;6.60;1.00
15286;DHT22;7744;52.172;10.668;2023-03-01T14:05:35;6.60;1.00
15286;DHT22;7744;52.172;10.668;2023-03-01T14:08:02;6.60;1.00
15286;DHT22;7744;52.172;10.668;2023-03-01T14:10:49;6.50;1.00
15286;DHT22;7744;52.172;10.668;2023-03-01T14:13:24;6.50;1.00
15286;DHT22;7744;52.172;10.668;2023-03-01T14:18:49;6.60;1.00
15286;DHT22;7744;52.172;10.668;2023-03-01T14:21:17;6.60;1.00
15286;DHT22;7744;52.172;10.668;2023-03-01T14:23:43;6.60;1.00
15286;DHT22;7744;52.172;10.668;2023-03-01T14:26:09;6.60;1.00
15286;DHT22;7744;52.172;10.668;2023-03-01T14:28:38;6.50;1.00
15286;DHT22;7744;52.172;10.668;2023-03-01T14:31:38;6.30;1.00
15286;DHT22;7744;52.172;10.668;2023-03-01T14:34:04;6.20;1.00
15286;DHT22;7744;52.172;10.668;2023-03-01T14:36:33;6.30;1.00
15286;DHT22;7744;52.172;10.668;2023-03-01T14:38:59;6.30;1.00
15286;DHT22;7744;52.172;10.668;2023-03-01T14:41:32;6.30;1.00
15286;DHT22;7744;52.172;10.668;2023-03-01T14:44:02;6.30;1.00
15286;DHT22;7744;52.172;10.668;2023-03-01T14:49:05;6.20;1.00
15286;DHT22;7744;52.172;10.668;2023-03-01T14:51:36;6.20;1.00
15286;DHT22;7744;52.172;10.668;2023-03-01T14:54:02;6.20;1.00
15286;DHT22;7744;52.172;10.668;2023-03-01T14:56:43;6.30;1.00
15286;DHT22;7744;52.172;10.668;2023-03-01T14:59:09;6.30;1.00
15286;DHT22;7744;52.172;10.668;2023-03-01T15:01:35;6.30;1.00
15286;DHT22;7744;52.172;10.668;2023-03-01T15:04:01;6.30;1.00
15286;DHT22;7744;52.172;10.668;2023-03-01T15:06:27;6.30;1.00
15286;DHT22;7744;52.172;10.668;2023-03-01T15:08:54;6.30;1.00
15286;DHT22;7744;52.172;10.668;2023-03-01T15:11:24;6.30;1.00
15286;DHT22;7744;52.172;10.668;2023-03-01T15:13:53;6.20;1.00
15286;DHT22;7744;52.172;10.668;2023-03-01T15:16:26;6.20;1.00
15286;DHT22;7744;52.172;10.668;2023-03-01T15:19:00;6.00;1.00
15286;DHT22;7744;52.172;10.668;2023-03-01T15:21:38;6.00;1.00
15286;DHT22;7744;52.172;10.668;2023-03-01T15:24:25;6.00;1.00
15286;DHT22;7744;52.172;10.668;2023-03-01T15:27:01;5.90;1.00
15286;DHT22;7744;52.172;10.668;2023-03-01T15:29:32;5.90;1.00
15286;DHT22;7744;52.172;10.668;2023-03-01T15:32:01;5.90;1.00
15286;DHT22;7744;52.172;10.668;2023-03-01T15:34:32;5.90;1.00
15286;DHT22;7744;52.172;10.668;2023-03-01T15:37:00;5.80;1.00
15286;DHT22;7744;52.172;10.668;2023-03-01T15:39:41;5.70;1.00
15286;DHT22;7744;52.172;10.668;2023-03-01T15:47:47;5.50;1.00
15286;DHT22;7744;52.172;10.668;2023-03-01T15:50:28;5.40;1.00
15286;DHT22;7744;52.172;10.668;2023-03-01T15:52:55;5.30;1.00
15286;DHT22;7744;52.172;10.668;2023-03-01T15:55:27;5.10;1.00
15286;DHT22;7744;52.172;10.668;2023-03-01T15:58:10;5.00;1.00
15286;DHT22;7744;52.172;10.668;2023-03-01T16:00:37;4.90;1.00
15286;DHT22;7744;52.172;10.668;2023-03-01T16:03:04;4.80;1.00
15286;DHT22;7744;52.172;10.668;2023-03-01T16:05:33;4.70;1.00
15286;DHT22;7744;52.172;10.668;2023-03-01T16:08:00;4.60;1.00
15286;DHT22;7744;52.172;10.668;2023-03-01T16:10:26;4.60;1.00
15286;DHT22;7744;52.172;10.668;2023-03-01T16:12:53;4.50;1.00
15286;DHT22;7744;52.172;10.668;2023-03-01T16:15:23;4.30;1.00
15286;DHT22;7744;52.172;10.668;2023-03-01T16:17:50;4.20;1.00
15286;DHT22;7744;52.172;10.668;2023-03-01T16:20:16;4.10;1.00
15286;DHT22;7744;52.172;10.668;2023-03-01T16:22:43;3.90;1.00
15286;DHT22;7744;52.172;10.668;2023-03-01T16:25:14;3.80;1.00
15286;DHT22;7744;52.172;10.668;2023-03-01T16:27:48;3.60;1.00
15286;DHT22;7744;52.172;10.668;2023-03-01T16:30:17;3.50;1.00
15286;DHT22;7744;52.172;10.668;2023-03-01T16:32:45;3.40;1.00
15286;DHT22;7744;52.172;10.668;2023-03-01T16:35:12;3.20;1.00
15286;DHT22;7744;52.172;10.668;2023-03-01T16:37:39;3.10;1.00
15286;DHT22;7744;52.172;10.668;2023-03-01T16:40:07;2.90;1.00
15286;DHT22;7744;52.172;10.668;2023-03-01T16:42:40;2.80;1.00
15286;DHT22;7744;52.172;10.668;2023-03-01T16:45:07;2.60;1.00
15286;DHT22;7744;52.172;10.668;2023-03-01T16:47:34;2.50;1.00
15286;DHT22;7744;52.172;10.668;2023-03-01T16:49:59;2.30;1.00
15286;DHT22;7744;52.172;10.668;2023-03-01T16:52:25;2.20;1.00
15286;DHT22;7744;52.172;10.668;2023-03-01T16:54:51;2.20;1.00
15286;DHT22;7744;52.172;10.668;2023-03-01T16:57:16;2.00;1.00
15286;DHT22;7744;52.172;10.668;2023-03-01T16:59:42;2.00;1.00
15286;DHT22;7744;52.172;10.668;2023-03-01T17:02:11;1.80;1.00
15286;DHT22;7744;52.172;10.668;2023-03-01T17:04:39;1.70;1.00
15286;DHT22;7744;52.172;10.668;2023-03-01T17:07:04;1.70;1.00
15286;DHT22;7744;52.172;10.668;2023-03-01T17:09:33;1.50;1.00
15286;DHT22;7744;52.172;10.668;2023-03-01T17:11:59;1.40;1.00
15286;DHT22;7744;52.172;10.668;2023-03-01T17:14:24;1.40;1.00
15286;DHT22;7744;52.172;10.668;2023-03-01T17:16:50;1.30;1.00
15286;DHT22;7744;52.172;10.668;2023-03-01T17:19:15;1.20;1.00
15286;DHT22;7744;52.172;10.668;2023-03-01T17:21:43;1.10;1.00
15286;DHT22;7744;52.172;10.668;2023-03-01T17:24:09;1.00;1.00
15286;DHT22;7744;52.172;10.668;2023-03-01T17:26:35;1.00;1.00
15286;DHT22;7744;52.172;10.668;2023-03-01T17:29:00;1.00;1.00
15286;DHT22;7744;52.172;10.668;2023-03-01T17:31:26;1.00;1.00
15286;DHT22;7744;52.172;10.668;2023-03-01T17:33:52;1.00;1.00
15286;DHT22;7744;52.172;10.668;2023-03-01T17:36:18;1.00;1.00
15286;DHT22;7744;52.172;10.668;2023-03-01T17:38:43;1.00;1.00
15286;DHT22;7744;52.172;10.668;2023-03-01T17:41:10;1.00;1.00
15286;DHT22;7744;52.172;10.668;2023-03-01T17:43:36;1.00;1.00
15286;DHT22;7744;52.172;10.668;2023-03-01T17:46:02;1.00;1.00